createdAt,value
2022-08-11T00:00:31.982Z,1.30
2022-08-11T00:01:31.964Z,1.30
2022-08-11T00:02:32.057Z,1.40
2022-08-11T00:03:42.574Z,1.30
2022-08-11T00:04:32.945Z,1.50
2022-08-11T00:05:31.938Z,1.30
2022-08-11T00:06:31.922Z,1.30
2022-08-11T00:07:31.897Z,1.50
2022-08-11T00:08:32.082Z,1.40
2022-08-11T00:09:31.867Z,1.60
2022-08-11T00:10:32.860Z,1.40
2022-08-11T00:11:31.864Z,1.60
2022-08-11T00:12:31.839Z,1.40
2022-08-11T00:13:31.826Z,1.40
2022-08-11T00:14:36.741Z,1.40
2022-08-11T00:15:32.786Z,1.40
2022-08-11T00:16:31.779Z,1.40
2022-08-11T00:17:31.756Z,1.50
2022-08-11T00:18:31.975Z,1.50
2022-08-11T00:20:14.843Z,1.50
2022-08-11T00:20:32.737Z,1.70
2022-08-11T00:21:54.571Z,1.70
2022-08-11T00:22:32.706Z,1.40
2022-08-11T00:23:31.690Z,1.60
2022-08-11T00:24:31.679Z,1.40
2022-08-11T00:25:31.656Z,1.70
2022-08-11T00:26:31.649Z,1.50
2022-08-11T00:27:31.635Z,1.60
2022-08-11T00:28:32.140Z,1.50
2022-08-11T00:29:31.599Z,1.40
2022-08-11T00:30:31.590Z,1.40
2022-08-11T00:31:31.575Z,1.60
2022-08-11T00:32:31.570Z,1.50
2022-08-11T00:33:42.539Z,1.50
2022-08-11T00:34:32.560Z,1.50
2022-08-11T00:35:54.810Z,1.50
2022-08-11T00:36:32.511Z,1.50
2022-08-11T00:37:31.512Z,1.50
2022-08-11T00:38:32.095Z,1.40
2022-08-11T00:39:31.573Z,1.90
2022-08-11T00:40:31.461Z,1.80
2022-08-11T00:41:31.449Z,1.70
2022-08-11T00:42:31.441Z,1.80
2022-08-11T00:43:31.422Z,1.70
2022-08-11T00:44:31.428Z,1.80
2022-08-11T00:45:31.433Z,1.70
2022-08-11T00:46:31.383Z,1.80
2022-08-11T00:47:31.372Z,1.70
2022-08-11T00:48:31.385Z,1.80
2022-08-11T00:49:31.342Z,1.70
2022-08-11T00:50:31.342Z,1.80
2022-08-11T00:52:05.012Z,1.90
2022-08-11T00:52:32.344Z,1.70
2022-08-11T00:53:31.293Z,1.90
2022-08-11T00:54:33.151Z,2.00
2022-08-11T00:55:31.291Z,2.00
2022-08-11T00:56:31.273Z,2.00
2022-08-11T00:57:37.550Z,1.90
2022-08-11T00:58:32.263Z,1.90
2022-08-11T00:59:35.198Z,1.80
2022-08-11T01:00:31.331Z,1.80
2022-08-11T01:01:31.318Z,1.80
2022-08-11T01:02:31.195Z,1.80
2022-08-11T01:03:31.163Z,1.80
2022-08-11T01:04:31.154Z,1.90
2022-08-11T01:05:31.147Z,1.80
2022-08-11T01:06:31.132Z,2.00
2022-08-11T01:08:02.966Z,1.90
2022-08-11T01:08:32.102Z,1.90
2022-08-11T01:09:31.092Z,1.90
2022-08-11T01:10:31.073Z,2.00
2022-08-11T01:11:31.053Z,2.00
2022-08-11T01:12:31.042Z,1.80
2022-08-11T01:13:31.051Z,1.90
2022-08-11T01:14:33.841Z,1.90
2022-08-11T01:15:31.061Z,1.80
2022-08-11T01:16:31.015Z,1.90
2022-08-11T01:17:30.998Z,1.80
2022-08-11T01:18:31.016Z,2.10
2022-08-11T01:19:30.986Z,2.00
2022-08-11T01:20:45.728Z,2.00
2022-08-11T01:21:31.948Z,2.00
2022-08-11T01:22:30.924Z,2.00
2022-08-11T01:23:30.918Z,2.20
2022-08-11T01:24:30.919Z,2.00
2022-08-11T01:25:30.894Z,2.00
2022-08-11T01:26:30.879Z,2.40
2022-08-11T01:27:30.855Z,2.00
2022-08-11T01:28:30.875Z,2.10
2022-08-11T01:29:30.837Z,2.20
2022-08-11T01:30:30.837Z,2.10
2022-08-11T01:31:30.866Z,2.10
2022-08-11T01:32:30.828Z,2.20
2022-08-11T01:33:30.797Z,2.20
2022-08-11T01:34:30.786Z,2.20
2022-08-11T01:35:30.767Z,2.30
2022-08-11T01:36:30.760Z,2.20
2022-08-11T01:37:30.802Z,2.20
2022-08-11T01:38:30.736Z,2.50
2022-08-11T01:39:30.761Z,2.30
2022-08-11T01:40:30.749Z,2.50
2022-08-11T01:41:30.689Z,2.20
2022-08-11T01:42:30.680Z,2.40
2022-08-11T01:43:30.689Z,2.30
2022-08-11T01:44:30.660Z,2.70
2022-08-11T01:45:30.638Z,2.40
2022-08-11T01:46:30.647Z,2.40
2022-08-11T01:47:30.617Z,2.50
2022-08-11T01:48:30.667Z,2.60
2022-08-11T01:50:07.186Z,2.70
2022-08-11T01:50:37.613Z,2.50
2022-08-11T01:51:30.596Z,2.50
2022-08-11T01:52:33.706Z,2.40
2022-08-11T01:53:30.540Z,2.70
2022-08-11T01:54:30.532Z,2.50
2022-08-11T01:55:30.607Z,2.50
2022-08-11T01:56:30.496Z,2.50
2022-08-11T01:57:30.578Z,2.40
2022-08-11T01:58:43.889Z,2.80
2022-08-11T01:59:31.474Z,2.80
2022-08-11T02:00:30.543Z,2.60
2022-08-11T02:01:30.448Z,2.50
2022-08-11T02:02:30.423Z,2.40
2022-08-11T02:03:30.414Z,2.50
2022-08-11T02:04:30.393Z,2.40
2022-08-11T02:05:30.373Z,2.40
2022-08-11T02:06:30.364Z,2.70
2022-08-11T02:07:30.363Z,2.50
2022-08-11T02:08:33.226Z,2.60
2022-08-11T02:09:30.325Z,2.50
2022-08-11T02:10:35.391Z,2.40
2022-08-11T02:11:35.147Z,2.70
2022-08-11T02:12:31.344Z,3.00
2022-08-11T02:13:36.606Z,2.80
2022-08-11T02:14:31.266Z,3.00
2022-08-11T02:15:30.247Z,2.60
2022-08-11T02:16:30.226Z,2.50
2022-08-11T02:17:30.218Z,2.60
2022-08-11T02:18:30.255Z,2.70
2022-08-11T02:19:30.186Z,2.60
2022-08-11T02:20:30.185Z,2.50
2022-08-11T02:21:30.165Z,2.60
2022-08-11T02:22:30.205Z,2.90
2022-08-11T02:24:06.069Z,2.90
2022-08-11T02:24:31.138Z,2.60
2022-08-11T02:25:30.178Z,2.90
2022-08-11T02:26:30.117Z,2.70
2022-08-11T02:27:30.096Z,2.90
2022-08-11T02:28:30.140Z,3.00
2022-08-11T02:29:30.082Z,2.70
2022-08-11T02:30:30.059Z,3.00
2022-08-11T02:32:17.145Z,2.80
2022-08-11T02:32:31.276Z,3.00
2022-08-11T02:33:30.014Z,2.70
2022-08-11T02:34:30.017Z,2.90
2022-08-11T02:35:29.977Z,2.90
2022-08-11T02:36:29.995Z,2.70
2022-08-11T02:37:29.958Z,2.90
2022-08-11T02:38:29.987Z,2.90
2022-08-11T02:39:29.963Z,3.20
2022-08-11T02:40:29.950Z,3.00
2022-08-11T02:41:29.909Z,3.00
2022-08-11T02:42:33.442Z,3.30
2022-08-11T02:43:30.893Z,3.30
2022-08-11T02:44:29.868Z,3.00
2022-08-11T02:45:29.868Z,3.10
2022-08-11T02:46:29.874Z,3.10
2022-08-11T02:47:29.933Z,3.40
2022-08-11T02:48:29.847Z,3.20
2022-08-11T02:49:29.986Z,3.30
2022-08-11T02:50:29.795Z,3.20
2022-08-11T02:51:29.899Z,3.30
2022-08-11T02:52:29.777Z,3.50
2022-08-11T02:53:29.807Z,3.10
2022-08-11T02:54:29.738Z,3.40
2022-08-11T02:55:56.147Z,3.40
2022-08-11T02:56:30.720Z,3.20
2022-08-11T02:57:29.702Z,3.50
2022-08-11T02:58:29.710Z,3.10
2022-08-11T02:59:29.681Z,3.30
2022-08-11T03:00:29.662Z,3.40
2022-08-11T03:01:29.729Z,3.20
2022-08-11T03:02:29.640Z,3.00
2022-08-11T03:03:29.631Z,3.20
2022-08-11T03:04:37.522Z,3.10
2022-08-11T03:05:30.600Z,3.50
2022-08-11T03:06:29.610Z,3.10
2022-08-11T03:07:29.898Z,3.30
2022-08-11T03:08:29.583Z,3.10
2022-08-11T03:09:29.550Z,3.30
2022-08-11T03:10:29.554Z,3.30
2022-08-11T03:11:29.522Z,3.10
2022-08-11T03:12:29.614Z,3.50
2022-08-11T03:13:29.513Z,3.00
2022-08-11T03:14:29.495Z,3.30
2022-08-11T03:15:29.473Z,3.00
2022-08-11T03:16:29.491Z,3.20
2022-08-11T03:17:29.453Z,3.30
2022-08-11T03:18:29.484Z,3.10
2022-08-11T03:19:29.441Z,3.20
2022-08-11T03:20:33.106Z,3.60
2022-08-11T03:21:52.350Z,3.20
2022-08-11T03:22:30.373Z,3.40
2022-08-11T03:23:29.373Z,3.40
2022-08-11T03:24:29.343Z,3.60
2022-08-11T03:25:29.365Z,3.10
2022-08-11T03:26:29.322Z,3.40
2022-08-11T03:27:29.322Z,4.00
2022-08-11T03:28:29.385Z,3.90
2022-08-11T03:29:29.294Z,3.10
2022-08-11T03:30:29.284Z,4.10
2022-08-11T03:31:29.293Z,3.60
2022-08-11T03:32:29.323Z,3.30
2022-08-11T03:33:29.312Z,3.60
2022-08-11T03:34:29.225Z,3.60
2022-08-11T03:35:29.222Z,3.20
2022-08-11T03:36:29.253Z,3.40
2022-08-11T03:37:29.193Z,3.30
2022-08-11T03:38:30.532Z,3.20
2022-08-11T03:39:29.191Z,3.50
2022-08-11T03:40:29.145Z,3.30
2022-08-11T03:42:02.026Z,3.80
2022-08-11T03:42:30.133Z,3.50
2022-08-11T03:43:29.103Z,3.30
2022-08-11T03:44:29.114Z,3.40
2022-08-11T03:45:29.095Z,3.40
2022-08-11T03:46:29.075Z,3.60
2022-08-11T03:47:29.207Z,3.70
2022-08-11T03:48:29.085Z,4.10
2022-08-11T03:49:29.035Z,3.60
2022-08-11T03:50:29.013Z,3.50
2022-08-11T03:51:44.513Z,3.80
2022-08-11T03:52:29.996Z,4.10
2022-08-11T03:53:28.986Z,3.90
2022-08-11T03:54:28.976Z,3.90
2022-08-11T03:55:28.956Z,3.60
2022-08-11T03:56:28.950Z,3.60
2022-08-11T03:57:28.936Z,4.10
2022-08-11T03:58:28.936Z,3.50
2022-08-11T03:59:28.924Z,3.50
2022-08-11T04:00:28.906Z,3.50
2022-08-11T04:01:28.938Z,3.60
2022-08-11T04:02:28.925Z,3.70
2022-08-11T04:03:31.220Z,4.00
2022-08-11T04:04:28.849Z,3.70
2022-08-11T04:05:28.826Z,4.10
2022-08-11T04:06:28.886Z,3.70
2022-08-11T04:07:28.808Z,3.90
2022-08-11T04:08:34.216Z,3.80
2022-08-11T04:09:29.777Z,4.00
2022-08-11T04:10:28.760Z,3.90
2022-08-11T04:11:28.757Z,4.00
2022-08-11T04:12:36.334Z,4.00
2022-08-11T04:13:29.772Z,4.20
2022-08-11T04:14:28.746Z,3.80
2022-08-11T04:15:28.700Z,4.00
2022-08-11T04:16:28.680Z,4.00
2022-08-11T04:17:28.729Z,4.00
2022-08-11T04:18:28.692Z,4.00
2022-08-11T04:19:28.657Z,3.90
2022-08-11T04:20:28.638Z,4.10
2022-08-11T04:21:28.648Z,4.00
2022-08-11T04:22:28.659Z,4.20
2022-08-11T04:24:36.972Z,4.10
2022-08-11T04:24:37.853Z,3.70
2022-08-11T04:25:29.628Z,4.10
2022-08-11T04:26:28.568Z,4.20
2022-08-11T04:27:36.881Z,4.10
2022-08-11T04:28:31.284Z,4.70
2022-08-11T04:29:36.006Z,3.80
2022-08-11T04:30:29.510Z,4.00
2022-08-11T04:31:49.577Z,4.20
2022-08-11T04:32:29.525Z,4.10
2022-08-11T04:33:28.469Z,4.00
2022-08-11T04:34:29.450Z,4.00
2022-08-11T04:35:28.441Z,3.80
2022-08-11T04:36:28.439Z,4.00
2022-08-11T04:37:28.408Z,4.00
2022-08-11T04:38:28.424Z,3.90
2022-08-11T04:39:28.426Z,4.00
2022-08-11T04:40:28.382Z,4.10
2022-08-11T04:41:28.370Z,4.20
2022-08-11T04:42:37.693Z,4.10
2022-08-11T04:43:29.413Z,4.00
2022-08-11T04:44:28.322Z,3.70
2022-08-11T04:45:28.332Z,3.80
2022-08-11T04:46:28.311Z,4.20
2022-08-11T04:47:28.292Z,4.00
2022-08-11T04:48:28.301Z,3.70
2022-08-11T04:49:33.904Z,3.60
2022-08-11T04:50:29.251Z,3.60
2022-08-11T04:51:28.241Z,3.70
2022-08-11T04:52:37.609Z,4.50
2022-08-11T04:53:29.253Z,3.60
2022-08-11T04:54:28.877Z,3.50
2022-08-11T04:55:28.262Z,3.40
2022-08-11T04:56:28.167Z,3.70
2022-08-11T04:57:28.174Z,4.00
2022-08-11T04:58:31.373Z,3.60
2022-08-11T04:59:28.149Z,3.70
2022-08-11T05:00:28.120Z,3.50
2022-08-11T05:01:28.213Z,3.40
2022-08-11T05:02:28.135Z,3.40
2022-08-11T05:03:28.081Z,3.70
2022-08-11T05:04:28.084Z,3.40
2022-08-11T05:05:28.076Z,3.50
2022-08-11T05:06:28.044Z,3.70
2022-08-11T05:07:28.042Z,3.50
2022-08-11T05:08:28.043Z,3.50
2022-08-11T05:09:28.007Z,3.30
2022-08-11T05:10:27.997Z,3.30
2022-08-11T05:11:28.004Z,3.50
2022-08-11T05:12:28.071Z,3.30
2022-08-11T05:13:27.995Z,3.60
2022-08-11T05:14:27.933Z,3.40
2022-08-11T05:15:27.922Z,3.30
2022-08-11T05:16:27.906Z,3.10
2022-08-11T05:17:28.034Z,3.20
2022-08-11T05:18:28.082Z,3.00
2022-08-11T05:19:27.963Z,3.30
2022-08-11T05:20:27.865Z,3.20
2022-08-11T05:21:27.865Z,3.00
2022-08-11T05:22:27.886Z,3.00
2022-08-11T05:23:27.846Z,3.10
2022-08-11T05:24:27.815Z,3.00
2022-08-11T05:26:43.242Z,3.10
2022-08-11T05:26:47.814Z,2.70
2022-08-11T05:27:28.777Z,3.00
2022-08-11T05:28:27.807Z,2.80
2022-08-11T05:29:27.743Z,2.90
2022-08-11T05:30:27.737Z,2.90
2022-08-11T05:31:27.725Z,3.00
2022-08-11T05:32:27.805Z,2.80
2022-08-11T05:33:27.685Z,2.70
2022-08-11T05:34:27.695Z,2.50
2022-08-11T05:36:02.382Z,2.60
2022-08-11T05:36:28.665Z,2.70
2022-08-11T05:37:27.919Z,2.50
2022-08-11T05:38:27.808Z,2.70
2022-08-11T05:39:36.308Z,2.50
2022-08-11T05:40:28.608Z,2.50
2022-08-11T05:41:27.597Z,2.60
2022-08-11T05:42:30.551Z,2.70
2022-08-11T05:43:27.576Z,2.60
2022-08-11T05:44:27.555Z,2.60
2022-08-11T05:45:27.571Z,2.50
2022-08-11T05:46:28.535Z,2.50
2022-08-11T05:47:27.578Z,2.20
2022-08-11T05:48:27.736Z,2.30
2022-08-11T05:49:27.516Z,2.30
2022-08-11T05:50:31.109Z,2.20
2022-08-11T05:51:30.025Z,2.20
2022-08-11T05:52:31.839Z,2.30
2022-08-11T05:53:27.500Z,2.20
2022-08-11T05:54:28.832Z,2.20
2022-08-11T05:55:27.411Z,2.30
2022-08-11T05:56:27.409Z,2.20
2022-08-11T05:57:49.447Z,2.10
2022-08-11T05:58:28.422Z,2.20
2022-08-11T05:59:27.349Z,2.10
2022-08-11T06:00:27.481Z,2.20
2022-08-11T06:01:27.411Z,2.20
2022-08-11T06:02:27.390Z,2.40
2022-08-11T06:03:27.355Z,2.00
2022-08-11T06:04:27.410Z,2.20
2022-08-11T06:05:27.334Z,2.50
2022-08-11T06:06:27.268Z,2.10
2022-08-11T06:07:27.270Z,1.80
2022-08-11T06:08:27.792Z,1.90
2022-08-11T06:09:27.279Z,2.00
2022-08-11T06:10:27.249Z,2.10
2022-08-11T06:11:44.265Z,2.00
2022-08-11T06:12:28.218Z,1.90
2022-08-11T06:13:27.243Z,2.00
2022-08-11T06:14:27.210Z,1.90
2022-08-11T06:15:27.155Z,1.80
2022-08-11T06:16:27.167Z,1.80
2022-08-11T06:17:27.130Z,1.80
2022-08-11T06:18:28.173Z,1.80
2022-08-11T06:19:27.108Z,2.00
2022-08-11T06:20:27.104Z,2.00
2022-08-11T06:21:27.083Z,1.70
2022-08-11T06:22:27.084Z,1.80
2022-08-11T06:23:27.064Z,1.80
2022-08-11T06:24:27.022Z,1.90
2022-08-11T06:25:27.022Z,1.70
2022-08-11T06:26:27.012Z,1.70
2022-08-11T06:27:27.023Z,1.60
2022-08-11T06:28:28.120Z,1.70
2022-08-11T06:29:37.956Z,1.70
2022-08-11T06:30:28.109Z,1.70
2022-08-11T06:31:27.059Z,1.80
2022-08-11T06:32:27.070Z,1.70
2022-08-11T06:33:26.925Z,1.90
2022-08-11T06:34:27.250Z,1.60
2022-08-11T06:35:26.896Z,1.70
2022-08-11T06:36:26.878Z,1.70
2022-08-11T06:37:26.867Z,1.50
2022-08-11T06:38:26.866Z,1.60
2022-08-11T06:39:26.906Z,1.50
2022-08-11T06:40:26.854Z,1.50
2022-08-11T06:41:26.815Z,1.40
2022-08-11T06:42:26.787Z,1.50
2022-08-11T06:43:26.808Z,1.40
2022-08-11T06:44:26.774Z,1.50
2022-08-11T06:45:26.765Z,1.40
2022-08-11T06:46:28.524Z,1.40
2022-08-11T06:47:26.773Z,1.40
2022-08-11T06:48:26.729Z,1.40
2022-08-11T06:49:26.718Z,1.30
2022-08-11T06:50:26.699Z,1.40
2022-08-11T06:51:26.687Z,1.30
2022-08-11T06:52:34.536Z,1.50
2022-08-11T06:53:27.661Z,1.40
2022-08-11T06:54:26.691Z,1.50
2022-08-11T06:55:55.404Z,1.20
2022-08-11T06:56:27.609Z,1.30
2022-08-11T06:57:29.977Z,1.30
2022-08-11T06:58:26.652Z,1.30
2022-08-11T06:59:26.600Z,1.10
2022-08-11T07:00:26.612Z,1.30
2022-08-11T07:01:26.569Z,1.20
2022-08-11T07:02:30.983Z,1.10
2022-08-11T07:03:26.527Z,1.20
2022-08-11T07:04:26.520Z,1.20
2022-08-11T07:05:26.701Z,1.20
2022-08-11T07:06:26.488Z,1.10
2022-08-11T07:07:27.489Z,1.20
2022-08-11T07:08:33.598Z,1.10
2022-08-11T07:09:27.459Z,1.20
2022-08-11T07:10:26.439Z,1.20
2022-08-11T07:11:26.464Z,1.20
2022-08-11T07:12:26.422Z,1.30
2022-08-11T07:13:45.475Z,1.10
2022-08-11T07:14:27.393Z,1.10
2022-08-11T07:16:12.065Z,1.10
2022-08-11T07:16:27.375Z,1.10
2022-08-11T07:17:26.363Z,1.00
2022-08-11T07:18:26.353Z,1.10
2022-08-11T07:19:26.338Z,1.00
2022-08-11T07:20:26.322Z,1.00
2022-08-11T07:22:01.247Z,1.00
2022-08-11T07:22:27.761Z,1.10
2022-08-11T07:23:26.324Z,1.10
2022-08-11T07:24:58.532Z,1.10
2022-08-11T07:25:27.245Z,1.10
2022-08-11T07:26:26.285Z,1.00
2022-08-11T07:27:26.223Z,1.00
2022-08-11T07:28:27.862Z,1.00
2022-08-11T07:29:26.214Z,1.00
2022-08-11T07:30:26.186Z,1.00
2022-08-11T07:31:26.195Z,1.00
2022-08-11T07:32:26.187Z,0.90
2022-08-11T07:34:08.408Z,1.00
2022-08-11T07:34:27.173Z,1.00
2022-08-11T07:35:26.135Z,0.90
2022-08-11T07:36:28.321Z,0.90
2022-08-11T07:37:26.096Z,1.00
2022-08-11T07:38:26.073Z,0.90
2022-08-11T07:39:26.181Z,0.90
2022-08-11T07:40:26.047Z,0.80
2022-08-11T07:41:26.058Z,0.90
2022-08-11T07:42:26.017Z,0.90
2022-08-11T07:43:26.008Z,0.90
2022-08-11T07:44:29.370Z,0.90
2022-08-11T07:45:27.018Z,0.90
2022-08-11T07:46:25.998Z,0.80
2022-08-11T07:47:25.976Z,0.80
2022-08-11T07:48:25.970Z,0.80
2022-08-11T07:49:25.937Z,0.80
2022-08-11T07:51:36.090Z,0.80
2022-08-11T07:52:36.104Z,0.80
2022-08-11T07:54:15.316Z,0.70
2022-08-11T07:54:39.648Z,0.80
2022-08-11T07:55:51.335Z,0.80
2022-08-11T07:56:54.474Z,0.80
2022-08-11T07:58:01.195Z,0.80
2022-08-11T07:58:41.455Z,0.80
2022-08-11T08:00:00.175Z,0.80
2022-08-11T08:00:36.922Z,0.80
2022-08-11T08:01:36.041Z,0.80
2022-08-11T08:02:36.102Z,0.70
2022-08-11T08:03:35.894Z,0.70
2022-08-11T08:04:35.894Z,0.80
2022-08-11T08:05:35.876Z,0.80
2022-08-11T08:06:36.707Z,0.70
2022-08-11T08:07:35.845Z,0.70
2022-08-11T08:08:35.833Z,0.70
2022-08-11T08:09:35.802Z,0.80
2022-08-11T08:10:35.813Z,0.70
2022-08-11T08:11:35.785Z,0.70
2022-08-11T08:12:35.783Z,0.70
2022-08-11T08:13:35.807Z,0.70
2022-08-11T08:14:35.756Z,0.70
2022-08-11T08:15:35.784Z,0.70
2022-08-11T08:16:35.736Z,0.70
2022-08-11T08:17:35.739Z,0.70
2022-08-11T08:18:35.699Z,0.70
2022-08-11T08:19:35.927Z,0.70
2022-08-11T08:20:35.675Z,0.70
2022-08-11T08:21:35.655Z,0.60
2022-08-11T08:22:37.966Z,0.60
2022-08-11T08:23:36.628Z,0.60
2022-08-11T08:24:35.607Z,0.60
2022-08-11T08:25:35.619Z,0.70
2022-08-11T08:26:35.619Z,0.60
2022-08-11T08:27:35.589Z,0.60
2022-08-11T08:28:35.576Z,0.70
2022-08-11T08:29:35.568Z,0.70
2022-08-11T08:30:35.549Z,0.60
2022-08-11T08:31:35.546Z,0.60
2022-08-11T08:32:35.539Z,0.60
2022-08-11T08:33:35.513Z,0.60
2022-08-11T08:34:35.491Z,0.50
2022-08-11T08:35:35.468Z,0.60
2022-08-11T08:36:36.468Z,0.50
2022-08-11T08:37:45.393Z,0.50
2022-08-11T08:38:36.456Z,0.50
2022-08-11T08:39:35.485Z,0.50
2022-08-11T08:40:35.409Z,0.50
2022-08-11T08:41:35.411Z,0.50
2022-08-11T08:42:35.400Z,0.50
2022-08-11T08:43:49.153Z,0.50
2022-08-11T08:44:40.514Z,0.60
2022-08-11T08:45:37.782Z,0.50
2022-08-11T08:46:35.344Z,0.50
2022-08-11T08:47:41.722Z,0.50
2022-08-11T08:48:36.323Z,0.50
2022-08-11T08:49:35.321Z,0.50
2022-08-11T08:50:36.283Z,0.50
2022-08-11T08:52:01.624Z,0.60
2022-08-11T08:52:39.433Z,0.50
2022-08-11T08:53:35.249Z,0.50
2022-08-11T08:54:35.231Z,0.60
2022-08-11T08:55:35.225Z,0.50
2022-08-11T08:56:35.214Z,0.50
2022-08-11T08:57:39.462Z,0.50
2022-08-11T08:58:36.197Z,0.50
2022-08-11T08:59:47.487Z,0.50
2022-08-11T09:00:36.175Z,0.50
2022-08-11T09:01:35.179Z,0.50
2022-08-11T09:02:35.318Z,0.50
2022-08-11T09:04:05.030Z,0.50
2022-08-11T09:04:36.116Z,0.50
2022-08-11T09:05:35.119Z,0.50
2022-08-11T09:06:35.105Z,0.50
2022-08-11T09:07:39.437Z,0.50
2022-08-11T09:08:36.103Z,0.50
2022-08-11T09:09:35.056Z,0.40
2022-08-11T09:10:35.037Z,0.50
2022-08-11T09:11:35.025Z,0.40
2022-08-11T09:12:38.115Z,0.50
2022-08-11T09:13:36.015Z,0.50
2022-08-11T09:14:34.980Z,0.40
2022-08-11T09:15:35.008Z,0.50
2022-08-11T09:16:35.077Z,0.40
2022-08-11T09:17:34.946Z,0.40
2022-08-11T09:18:34.948Z,0.40
2022-08-11T09:19:34.919Z,0.40
2022-08-11T09:20:34.907Z,0.40
2022-08-11T09:21:46.515Z,0.40
2022-08-11T09:22:35.890Z,0.40
2022-08-11T09:24:07.495Z,0.40
2022-08-11T09:24:35.870Z,0.40
2022-08-11T09:25:34.850Z,0.40
2022-08-11T09:26:34.855Z,0.40
2022-08-11T09:27:34.871Z,0.40
2022-08-11T09:28:34.945Z,0.40
2022-08-11T09:29:34.792Z,0.40
2022-08-11T09:30:34.790Z,0.40
2022-08-11T09:31:39.673Z,0.40
2022-08-11T09:32:35.752Z,0.40
2022-08-11T09:33:34.731Z,0.40
2022-08-11T09:34:34.742Z,0.40
2022-08-11T09:35:34.721Z,0.40
2022-08-11T09:36:34.702Z,0.40
2022-08-11T09:37:55.418Z,0.40
2022-08-11T09:38:35.692Z,0.40
2022-08-11T09:39:34.725Z,0.40
2022-08-11T09:40:34.663Z,0.40
2022-08-11T09:42:00.780Z,0.40
2022-08-11T09:42:35.632Z,0.40
2022-08-11T09:43:34.660Z,0.40
2022-08-11T09:44:34.635Z,0.40
2022-08-11T09:45:37.231Z,0.30
2022-08-11T09:46:35.580Z,0.30
2022-08-11T09:47:34.660Z,0.30
2022-08-11T09:48:34.574Z,0.30
2022-08-11T09:49:34.544Z,0.40
2022-08-11T09:50:34.545Z,0.30
2022-08-11T09:51:34.514Z,0.30
2022-08-11T09:52:34.763Z,0.30
2022-08-11T09:53:36.146Z,0.40
2022-08-11T09:54:35.547Z,0.30
2022-08-11T09:55:34.487Z,0.30
2022-08-11T09:56:34.458Z,0.40
2022-08-11T09:57:34.437Z,0.40
2022-08-11T09:58:41.807Z,0.40
2022-08-11T09:59:35.418Z,0.30
2022-08-11T10:00:34.418Z,0.30
2022-08-11T10:01:34.456Z,0.40
2022-08-11T10:02:34.377Z,0.30
2022-08-11T10:03:38.240Z,0.30
2022-08-11T10:04:35.355Z,0.40
2022-08-11T10:05:34.357Z,0.40
2022-08-11T10:06:34.743Z,0.40
2022-08-11T10:07:34.318Z,0.30
2022-08-11T10:08:34.299Z,0.30
2022-08-11T10:09:34.291Z,0.30
2022-08-11T10:10:34.289Z,0.30
2022-08-11T10:11:34.280Z,0.30
2022-08-11T10:12:34.242Z,0.30
2022-08-11T10:14:12.466Z,0.30
2022-08-11T10:14:35.330Z,0.30
2022-08-11T10:15:34.216Z,0.30
2022-08-11T10:16:34.211Z,0.30
2022-08-11T10:17:34.258Z,0.30
2022-08-11T10:18:34.170Z,0.30
2022-08-11T10:19:34.163Z,0.30
2022-08-11T10:20:34.162Z,0.30
2022-08-11T10:21:34.136Z,0.30
2022-08-11T10:22:34.133Z,0.30
2022-08-11T10:26:06.614Z,0.30
2022-08-11T10:27:06.603Z,0.30
2022-08-11T10:28:28.547Z,0.30
2022-08-11T10:29:13.048Z,0.30
2022-08-11T10:30:07.561Z,0.30
2022-08-11T10:31:06.863Z,0.30
2022-08-11T10:32:07.547Z,0.30
2022-08-11T10:33:08.205Z,0.30
2022-08-11T10:34:06.507Z,0.30
2022-08-11T10:35:06.507Z,0.30
2022-08-11T10:36:16.531Z,0.30
2022-08-11T10:37:07.466Z,0.30
2022-08-11T10:38:09.964Z,0.30
2022-08-11T10:39:06.469Z,0.30
2022-08-11T10:40:06.444Z,0.30
2022-08-11T10:41:06.434Z,0.30
2022-08-11T10:42:10.753Z,0.30
2022-08-11T10:43:07.401Z,0.30
2022-08-11T10:44:06.401Z,0.30
2022-08-11T10:45:06.417Z,0.30
2022-08-11T10:46:06.352Z,0.30
2022-08-11T10:47:06.391Z,0.30
2022-08-11T10:48:06.332Z,0.30
2022-08-11T10:49:06.341Z,0.30
2022-08-11T10:50:06.301Z,0.30
2022-08-11T10:51:06.292Z,0.30
2022-08-11T10:52:06.279Z,0.30
2022-08-11T10:53:06.260Z,0.30
2022-08-11T10:54:06.259Z,0.30
2022-08-11T10:55:06.252Z,0.30
2022-08-11T10:56:06.299Z,0.30
2022-08-11T10:57:06.211Z,0.30
2022-08-11T10:58:06.209Z,0.30
2022-08-11T10:59:06.183Z,0.30
2022-08-11T11:00:06.184Z,0.30
2022-08-11T11:01:06.293Z,0.30
2022-08-11T11:02:06.154Z,0.30
2022-08-11T11:03:23.055Z,0.30
2022-08-11T11:04:07.128Z,0.30
2022-08-11T11:05:06.117Z,0.20
2022-08-11T11:06:28.608Z,0.20
2022-08-11T11:07:07.126Z,0.20
2022-08-11T11:08:06.076Z,0.30
2022-08-11T11:09:06.085Z,0.20
2022-08-11T11:10:06.065Z,0.30
2022-08-11T11:11:06.034Z,0.20
2022-08-11T11:12:06.068Z,0.30
2022-08-11T11:13:06.018Z,0.30
2022-08-11T11:14:05.996Z,0.20
2022-08-11T11:15:06.698Z,0.30
2022-08-11T11:16:05.977Z,0.20
2022-08-11T11:17:05.958Z,0.20
2022-08-11T11:18:06.067Z,0.20
2022-08-11T11:19:05.941Z,0.30
2022-08-11T11:20:05.933Z,0.20
2022-08-11T11:21:05.919Z,0.30
2022-08-11T11:22:05.913Z,0.30
2022-08-11T11:23:05.889Z,0.20
2022-08-11T11:24:05.908Z,0.20
2022-08-11T11:25:05.860Z,0.20
2022-08-11T11:26:05.841Z,0.20
2022-08-11T11:27:05.838Z,0.20
2022-08-11T11:28:05.841Z,0.20
2022-08-11T11:29:05.809Z,0.20
2022-08-11T11:30:05.803Z,0.20
2022-08-11T11:31:05.780Z,0.20
2022-08-11T11:32:05.811Z,0.20
2022-08-11T11:33:05.770Z,0.20
2022-08-11T11:34:12.058Z,0.20
2022-08-11T11:35:06.781Z,0.20
2022-08-11T11:36:05.733Z,0.20
2022-08-11T11:37:05.723Z,0.20
2022-08-11T11:38:07.533Z,0.20
2022-08-11T11:39:05.696Z,0.20
2022-08-11T11:40:05.673Z,0.20
2022-08-11T11:41:05.703Z,0.20
2022-08-11T11:42:05.643Z,0.20
2022-08-11T11:43:05.643Z,0.20
2022-08-11T11:44:05.632Z,0.20
2022-08-11T11:45:05.612Z,0.20
2022-08-11T11:46:05.593Z,0.20
2022-08-11T11:47:05.585Z,0.20
2022-08-11T11:48:05.585Z,0.20
2022-08-11T11:49:05.675Z,0.20
2022-08-11T11:50:06.576Z,0.20
2022-08-11T11:51:05.556Z,0.20
2022-08-11T11:52:05.516Z,0.20
2022-08-11T11:53:05.504Z,0.20
2022-08-11T11:54:05.495Z,0.20
2022-08-11T11:55:05.475Z,0.20
2022-08-11T11:56:05.488Z,0.20
2022-08-11T11:57:05.448Z,0.20
2022-08-11T11:58:05.452Z,0.20
2022-08-11T11:59:05.437Z,0.20
2022-08-11T12:00:05.448Z,0.20
2022-08-11T12:01:05.429Z,0.20
2022-08-11T12:02:11.881Z,0.20
2022-08-11T12:03:06.474Z,0.20
2022-08-11T12:04:05.358Z,0.20
2022-08-11T12:05:05.358Z,0.20
2022-08-11T12:06:05.338Z,0.20
2022-08-11T12:07:05.330Z,0.20
2022-08-11T12:08:13.094Z,0.20
2022-08-11T12:09:06.296Z,0.20
2022-08-11T12:10:05.286Z,0.20
2022-08-11T12:11:05.340Z,0.20
2022-08-11T12:12:05.282Z,0.20
2022-08-11T12:13:05.249Z,0.20
2022-08-11T12:14:10.689Z,0.20
2022-08-11T12:15:06.225Z,0.20
2022-08-11T12:16:34.259Z,0.20
2022-08-11T12:17:06.221Z,0.20
2022-08-11T12:18:05.193Z,0.20
2022-08-11T12:19:05.164Z,0.20
2022-08-11T12:20:05.171Z,0.20
2022-08-11T12:21:06.140Z,0.20
2022-08-11T12:22:05.132Z,0.20
2022-08-11T12:23:05.133Z,0.20
2022-08-11T12:24:05.105Z,0.20
2022-08-11T12:25:05.083Z,0.20
2022-08-11T12:26:25.702Z,0.20
2022-08-11T12:27:16.566Z,0.20
2022-08-11T12:28:06.695Z,0.20
2022-08-11T12:29:05.046Z,0.20
2022-08-11T12:30:05.035Z,0.20
2022-08-11T12:31:05.015Z,0.20
2022-08-11T12:32:05.007Z,0.20
2022-08-11T12:33:05.007Z,0.20
2022-08-11T12:34:04.987Z,0.20
2022-08-11T12:35:04.966Z,0.20
2022-08-11T12:36:04.948Z,0.20
2022-08-11T12:37:04.927Z,0.20
2022-08-11T12:38:10.900Z,0.20
2022-08-11T12:39:23.129Z,0.20
2022-08-11T12:40:16.701Z,0.20
2022-08-11T12:41:15.222Z,0.20
2022-08-11T12:42:05.966Z,0.20
2022-08-11T12:43:20.805Z,0.20
2022-08-11T12:44:05.878Z,0.20
2022-08-11T12:45:04.839Z,0.20
2022-08-11T12:46:05.858Z,0.20
2022-08-11T12:47:04.820Z,0.10
2022-08-11T12:48:42.555Z,0.20
2022-08-11T12:49:05.798Z,0.20
2022-08-11T12:50:04.780Z,0.20
2022-08-11T12:51:04.761Z,0.20
2022-08-11T12:52:14.819Z,0.20
2022-08-11T12:53:05.729Z,0.20
2022-08-11T12:54:04.723Z,0.20
2022-08-11T12:55:06.573Z,0.20
2022-08-11T12:56:07.813Z,0.20
2022-08-11T12:57:04.692Z,0.20
2022-08-11T12:58:04.705Z,0.20
2022-08-11T12:59:04.675Z,0.10
2022-08-11T13:00:04.652Z,0.20
2022-08-11T13:01:04.673Z,0.20
2022-08-11T13:02:04.633Z,0.20
2022-08-11T13:03:04.614Z,0.20
2022-08-11T13:04:04.593Z,0.20
2022-08-11T13:05:04.582Z,0.20
2022-08-11T13:06:04.574Z,0.10
2022-08-11T13:07:04.556Z,0.20
2022-08-11T13:08:04.555Z,0.10
2022-08-11T13:09:04.555Z,0.10
2022-08-11T13:10:04.567Z,0.20
2022-08-11T13:11:04.519Z,0.20
2022-08-11T13:12:04.518Z,0.10
2022-08-11T13:13:04.487Z,0.10
2022-08-11T13:14:05.496Z,0.10
2022-08-11T13:15:04.468Z,0.10
2022-08-11T13:16:04.447Z,0.10
2022-08-11T13:17:04.444Z,0.10
2022-08-11T13:18:04.425Z,0.10
2022-08-11T13:19:04.408Z,0.10
2022-08-11T13:20:04.409Z,0.10
2022-08-11T13:21:04.378Z,0.20
2022-08-11T13:22:04.377Z,0.10